^^
Saratoga-Weather Station Historical Data
Daily Summary for February 23, 2021 Units:  Both    English   Metric
Daily Weekly Monthly Yearly Custom
  High: Low: Average:
Temperature: 83.7 °F /  28.7 °C 59.7 °F /  15.4 °C 71.8 °F /  22.1 °C
Dew Point: 61.9 °F /  16.6 °C 56.5 °F /  13.6 °C 58.6 °F /  14.8 °C
Humidity: 91% 40% 66%
Wind Speed: 7mph /  11.3km/h - 1.1mph /  1.8km/h
Wind Gust: 10mph /  16.1km/h - -
Wind- - ESE
Pressure: 30 in /  1017.3 hPa 29.8 in /  1009.5 hPa -
Precipitation: 0 in /  0.0 mm    
Historical Graphs
 
 
Tabular Data for February 23, 2021
Time Temperature Dew Point Pressure Wind Wind Speed Wind Gust Humidity Rainfall Rate (Hourly) solar
00:03 65.1 °F /  18.4 °C 58.5 °F /  14.7 °C 30in /  1016.9hPa Calm     79% 0in /  0.0mm 0 W/m2
00:08 64.9 °F /  18.3 °C 58.3 °F /  14.6 °C 30in /  1016.9hPa Calm   1mph /  1.6km/h 79% 0in /  0.0mm 0 W/m2
00:13 64.8 °F /  18.2 °C 58.1 °F /  14.5 °C 30in /  1016.9hPa Calm     79% 0in /  0.0mm 0 W/m2
00:18 64.6 °F /  18.1 °C 58.3 °F /  14.6 °C 30in /  1017.3hPa Calm   1mph /  1.6km/h 80% 0in /  0.0mm 0 W/m2
00:23 64.6 °F /  18.1 °C 58.3 °F /  14.6 °C 30in /  1016.9hPa Calm     80% 0in /  0.0mm 0 W/m2
00:28 64.2 °F /  17.9 °C 57.9 °F /  14.4 °C 30in /  1017.3hPa Calm   1mph /  1.6km/h 80% 0in /  0.0mm 0 W/m2
00:33 64.2 °F /  17.9 °C 58.3 °F /  14.6 °C 30in /  1017.3hPa Calm     81% 0in /  0.0mm 0 W/m2
00:38 64 °F /  17.8 °C 58.1 °F /  14.5 °C 30in /  1017.3hPa Calm     81% 0in /  0.0mm 0 W/m2
00:43 63.9 °F /  17.7 °C 57.9 °F /  14.4 °C 30in /  1016.9hPa Calm     81% 0in /  0.0mm 0 W/m2
00:48 63.7 °F /  17.6 °C 58.1 °F /  14.5 °C 30in /  1016.9hPa Calm     82% 0in /  0.0mm 0 W/m2
00:53 63.5 °F /  17.5 °C 57.9 °F /  14.4 °C 30in /  1016.9hPa Calm   1mph /  1.6km/h 82% 0in /  0.0mm 0 W/m2
00:58 63.3 °F /  17.4 °C 58.1 °F /  14.5 °C 30in /  1017.3hPa Calm     83% 0in /  0.0mm 0 W/m2
01:03 63.1 °F /  17.3 °C 57.9 °F /  14.4 °C 30in /  1017.3hPa Calm   1mph /  1.6km/h 83% 0in /  0.0mm 0 W/m2
01:08 63.1 °F /  17.3 °C 57.9 °F /  14.4 °C 30in /  1017.3hPa Calm     83% 0in /  0.0mm 0 W/m2
01:13 63 °F /  17.2 °C 57.7 °F /  14.3 °C 30in /  1017.3hPa Calm   1mph /  1.6km/h 83% 0in /  0.0mm 0 W/m2
01:18 63 °F /  17.2 °C 57.7 °F /  14.3 °C 30in /  1017.3hPa Calm     83% 0in /  0.0mm 0 W/m2
01:23 62.8 °F /  17.1 °C 57.6 °F /  14.2 °C 30in /  1017.3hPa Calm   1mph /  1.6km/h 83% 0in /  0.0mm 0 W/m2
01:28 62.6 °F /  17 °C 57.7 °F /  14.3 °C 30in /  1017.3hPa Calm     84% 0in /  0.0mm 0 W/m2
01:33 62.4 °F /  16.9 °C 57.6 °F /  14.2 °C 30in /  1017.3hPa Calm     84% 0in /  0.0mm 0 W/m2
01:38 62.4 °F /  16.9 °C 57.9 °F /  14.4 °C 30in /  1017.3hPa Calm     85% 0in /  0.0mm 0 W/m2
01:43 62.2 °F /  16.8 °C 57.7 °F /  14.3 °C 30in /  1016.9hPa Calm     85% 0in /  0.0mm 0 W/m2
01:48 62.1 °F /  16.7 °C 57.6 °F /  14.2 °C 30in /  1016.9hPa Calm     85% 0in /  0.0mm 0 W/m2
01:53 62.1 °F /  16.7 °C 57.7 °F /  14.3 °C 30in /  1016.9hPa Calm   1mph /  1.6km/h 86% 0in /  0.0mm 0 W/m2
01:58 61.9 °F /  16.6 °C 57.6 °F /  14.2 °C 30in /  1016.9hPa Calm   1mph /  1.6km/h 86% 0in /  0.0mm 0 W/m2
02:03 61.9 °F /  16.6 °C 57.6 °F /  14.2 °C 30in /  1016.9hPa Calm     86% 0in /  0.0mm 0 W/m2
02:08 61.7 °F /  16.5 °C 57.4 °F /  14.1 °C 30in /  1016.9hPa Calm     86% 0in /  0.0mm 0 W/m2
02:13 61.5 °F /  16.4 °C 57.4 °F /  14.1 °C 30in /  1016.9hPa Calm     86% 0in /  0.0mm 0 W/m2
02:18 61.3 °F /  16.3 °C 57.2 °F /  14 °C 30in /  1016.9hPa Calm     86% 0in /  0.0mm 0 W/m2
02:23 61.3 °F /  16.3 °C 57.2 °F /  14 °C 30in /  1016.9hPa Calm     86% 0in /  0.0mm 0 W/m2
02:28 61.3 °F /  16.3 °C 57.4 °F /  14.1 °C 30in /  1016.9hPa Calm     87% 0in /  0.0mm 0 W/m2
02:33 61.2 °F /  16.2 °C 57.2 °F /  14 °C 30in /  1016.9hPa Calm     87% 0in /  0.0mm 0 W/m2
02:38 61.2 °F /  16.2 °C 57.2 °F /  14 °C 30in /  1016.9hPa Calm     87% 0in /  0.0mm 0 W/m2
02:43 61 °F /  16.1 °C 57 °F /  13.9 °C 30in /  1016.9hPa Calm     87% 0in /  0.0mm 0 W/m2
02:48 61 °F /  16.1 °C 57 °F /  13.9 °C 30in /  1016.9hPa Calm     87% 0in /  0.0mm 0 W/m2
02:53 61 °F /  16.1 °C 57.4 °F /  14.1 °C 30in /  1016.9hPa Calm     88% 0in /  0.0mm 0 W/m2
02:59 60.8 °F /  16 °C 57.2 °F /  14 °C 30in /  1016.9hPa Calm     88% 0in /  0.0mm 0 W/m2
03:04 60.8 °F /  16 °C 57.2 °F /  14 °C 30in /  1016.9hPa Calm     88% 0in /  0.0mm 0 W/m2
03:09 60.6 °F /  15.9 °C 57 °F /  13.9 °C 30in /  1016.9hPa Calm     88% 0in /  0.0mm 0 W/m2
03:14 60.4 °F /  15.8 °C 56.8 °F /  13.8 °C 30in /  1016.9hPa Calm     88% 0in /  0.0mm 0 W/m2
03:19 60.4 °F /  15.8 °C 56.8 °F /  13.8 °C 30in /  1016.9hPa Calm     88% 0in /  0.0mm 0 W/m2
03:24 60.3 °F /  15.7 °C 57 °F /  13.9 °C 30in /  1016.9hPa Calm     89% 0in /  0.0mm 0 W/m2
03:29 60.3 °F /  15.7 °C 57 °F /  13.9 °C 30in /  1016.9hPa Calm     89% 0in /  0.0mm 0 W/m2
03:34 60.3 °F /  15.7 °C 57.4 °F /  14.1 °C 30in /  1016.9hPa Calm     90% 0in /  0.0mm 0 W/m2
03:39 60.3 °F /  15.7 °C 57.4 °F /  14.1 °C 30in /  1016.9hPa WNW 0.9mph /  1.4km/h 1mph /  1.6km/h 90% 0in /  0.0mm 0 W/m2
03:44 60.3 °F /  15.7 °C 57.4 °F /  14.1 °C 30in /  1016.9hPa Calm     90% 0in /  0.0mm 0 W/m2
03:49 60.3 °F /  15.7 °C 57.4 °F /  14.1 °C 30in /  1016.9hPa Calm     90% 0in /  0.0mm 0 W/m2
03:54 60.3 °F /  15.7 °C 57.4 °F /  14.1 °C 30in /  1016.9hPa Calm     90% 0in /  0.0mm 0 W/m2
03:59 60.3 °F /  15.7 °C 57.6 °F /  14.2 °C 30in /  1016.6hPa Calm     91% 0in /  0.0mm 0 W/m2
04:04 60.3 °F /  15.7 °C 57.6 °F /  14.2 °C 30in /  1016.6hPa Calm     91% 0in /  0.0mm 0 W/m2
04:09 60.3 °F /  15.7 °C 57.6 °F /  14.2 °C 30in /  1016.9hPa Calm   2mph /  3.2km/h 91% 0in /  0.0mm 0 W/m2
04:14 60.3 °F /  15.7 °C 57.6 °F /  14.2 °C 30in /  1016.6hPa Calm   2mph /  3.2km/h 91% 0in /  0.0mm 0 W/m2
04:19 60.3 °F /  15.7 °C 57.6 °F /  14.2 °C 30in /  1016.6hPa SSW 0.9mph /  1.4km/h 2mph /  3.2km/h 91% 0in /  0.0mm 0 W/m2
04:24 60.4 °F /  15.8 °C 57.6 °F /  14.2 °C 30in /  1016.6hPa SSW 2mph /  3.2km/h 2mph /  3.2km/h 90% 0in /  0.0mm 0 W/m2
04:29 60.4 °F /  15.8 °C 57.6 °F /  14.2 °C 30in /  1016.6hPa Calm   1mph /  1.6km/h 90% 0in /  0.0mm 0 W/m2
04:34 60.4 °F /  15.8 °C 57.6 °F /  14.2 °C 30in /  1016.6hPa Calm     90% 0in /  0.0mm 0 W/m2
04:39 60.4 °F /  15.8 °C 57.6 °F /  14.2 °C 30in /  1016.6hPa Calm   1mph /  1.6km/h 90% 0in /  0.0mm 0 W/m2
04:44 60.4 °F /  15.8 °C 57.6 °F /  14.2 °C 30in /  1016.6hPa Calm   1mph /  1.6km/h 90% 0in /  0.0mm 0 W/m2
04:49 60.4 °F /  15.8 °C 57.6 °F /  14.2 °C 30in /  1016.6hPa Calm   1mph /  1.6km/h 90% 0in /  0.0mm 0 W/m2
04:54 60.4 °F /  15.8 °C 57.6 °F /  14.2 °C 30in /  1016.6hPa Calm     90% 0in /  0.0mm 0 W/m2
04:59 60.4 °F /  15.8 °C 57.6 °F /  14.2 °C 30in /  1016.6hPa Calm   1mph /  1.6km/h 90% 0in /  0.0mm 0 W/m2
05:04 60.4 °F /  15.8 °C 57.6 °F /  14.2 °C 30in /  1016.6hPa Calm   1mph /  1.6km/h 90% 0in /  0.0mm 0 W/m2
05:09 60.4 °F /  15.8 °C 57.2 °F /  14 °C 30in /  1016.3hPa Calm     89% 0in /  0.0mm 0 W/m2
05:14 60.4 °F /  15.8 °C 57.6 °F /  14.2 °C 30in /  1016.3hPa Calm     90% 0in /  0.0mm 0 W/m2
05:19 60.4 °F /  15.8 °C 57.2 °F /  14 °C 30in /  1016.3hPa SSW 0.9mph /  1.4km/h 1mph /  1.6km/h 89% 0in /  0.0mm 0 W/m2
05:24 60.6 °F /  15.9 °C 57.4 °F /  14.1 °C 30in /  1016.3hPa Calm     89% 0in /  0.0mm 0 W/m2
05:29 60.4 °F /  15.8 °C 57.2 °F /  14 °C 30in /  1016.3hPa SSW 0.9mph /  1.4km/h 2mph /  3.2km/h 89% 0in /  0.0mm 0 W/m2
05:34 60.4 °F /  15.8 °C 57.2 °F /  14 °C 30in /  1016.3hPa Calm     89% 0in /  0.0mm 0 W/m2
05:39 60.4 °F /  15.8 °C 57.2 °F /  14 °C 30in /  1016.3hPa Calm     89% 0in /  0.0mm 0 W/m2
05:44 60.3 °F /  15.7 °C 57 °F /  13.9 °C 30in /  1016.3hPa Calm     89% 0in /  0.0mm 0 W/m2
05:49 60.3 °F /  15.7 °C 57 °F /  13.9 °C 30in /  1016.3hPa Calm     89% 0in /  0.0mm 0 W/m2
05:54 60.1 °F /  15.6 °C 56.8 °F /  13.8 °C 30in /  1016.3hPa Calm     89% 0in /  0.0mm 0 W/m2
05:59 60.1 °F /  15.6 °C 57.2 °F /  14 °C 30in /  1016.3hPa Calm   1mph /  1.6km/h 90% 0in /  0.0mm 5 W/m2
06:04 59.9 °F /  15.5 °C 57 °F /  13.9 °C 30in /  1016.3hPa Calm     90% 0in /  0.0mm 7 W/m2
06:09 59.9 °F /  15.5 °C 57 °F /  13.9 °C 30in /  1016.3hPa SSW 0.9mph /  1.4km/h 1mph /  1.6km/h 90% 0in /  0.0mm 9 W/m2
06:14 59.7 °F /  15.4 °C 56.8 °F /  13.8 °C 30in /  1016.3hPa Calm   1mph /  1.6km/h 90% 0in /  0.0mm 12 W/m2
06:19 59.7 °F /  15.4 °C 57 °F /  13.9 °C 30in /  1016.3hPa Calm     91% 0in /  0.0mm 14 W/m2
06:24 59.7 °F /  15.4 °C 57 °F /  13.9 °C 30in /  1016.3hPa Calm     91% 0in /  0.0mm 18 W/m2
06:29 59.7 °F /  15.4 °C 57 °F /  13.9 °C 30in /  1016.3hPa Calm     91% 0in /  0.0mm 21 W/m2
06:34 59.7 °F /  15.4 °C 57 °F /  13.9 °C 30in /  1016.3hPa Calm     91% 0in /  0.0mm 25 W/m2
06:39 59.7 °F /  15.4 °C 57 °F /  13.9 °C 30in /  1016.3hPa Calm     91% 0in /  0.0mm 26 W/m2
06:44 59.9 °F /  15.5 °C 57.2 °F /  14 °C 30in /  1016.3hPa Calm     91% 0in /  0.0mm 30 W/m2
06:49 60.1 °F /  15.6 °C 57.4 °F /  14.1 °C 30in /  1016.3hPa Calm     91% 0in /  0.0mm 32 W/m2
06:54 60.1 °F /  15.6 °C 57.4 °F /  14.1 °C 30in /  1016.3hPa Calm     91% 0in /  0.0mm 35 W/m2
06:59 60.3 °F /  15.7 °C 57.6 °F /  14.2 °C 30in /  1016.3hPa Calm     91% 0in /  0.0mm 39 W/m2
07:04 60.3 °F /  15.7 °C 57.6 °F /  14.2 °C 30in /  1016.3hPa Calm     91% 0in /  0.0mm 40 W/m2
07:09 60.4 °F /  15.8 °C 57.7 °F /  14.3 °C 30in /  1016.3hPa Calm     91% 0in /  0.0mm 42 W/m2
07:15 60.6 °F /  15.9 °C 57.9 °F /  14.4 °C 30in /  1016.3hPa Calm     91% 0in /  0.0mm 46 W/m2
07:20 60.8 °F /  16 °C 58.1 °F /  14.5 °C 30in /  1016.3hPa Calm     91% 0in /  0.0mm 47 W/m2
07:25 61 °F /  16.1 °C 58.1 °F /  14.5 °C 30in /  1016.3hPa Calm     90% 0in /  0.0mm 51 W/m2
07:30 61.2 °F /  16.2 °C 58.3 °F /  14.6 °C 30in /  1016.3hPa Calm     90% 0in /  0.0mm 54 W/m2
07:35 61.3 °F /  16.3 °C 58.1 °F /  14.5 °C 30in /  1016.3hPa Calm     89% 0in /  0.0mm 56 W/m2
07:40 61.7 °F /  16.5 °C 58.1 °F /  14.5 °C 30in /  1016.3hPa Calm     88% 0in /  0.0mm 62 W/m2
07:45 62.1 °F /  16.7 °C 58.1 °F /  14.5 °C 30in /  1016.3hPa Calm     87% 0in /  0.0mm 63 W/m2
07:50 62.4 °F /  16.9 °C 58.1 °F /  14.5 °C 30in /  1016.3hPa Calm   3mph /  4.8km/h 86% 0in /  0.0mm 63 W/m2
07:55 62.8 °F /  17.1 °C 58.3 °F /  14.6 °C 30in /  1016.3hPa Calm     85% 0in /  0.0mm 118 W/m2
08:00 63 °F /  17.2 °C 58.5 °F /  14.7 °C 30in /  1016.3hPa Calm   2mph /  3.2km/h 85% 0in /  0.0mm 172 W/m2
08:05 63.3 °F /  17.4 °C 58.8 °F /  14.9 °C 30in /  1016.3hPa NE 2mph /  3.2km/h 3mph /  4.8km/h 85% 0in /  0.0mm 123 W/m2
08:10 64.2 °F /  17.9 °C 59.4 °F /  15.2 °C 30in /  1016.3hPa NE 2.9mph /  4.7km/h 3mph /  4.8km/h 84% 0in /  0.0mm 83 W/m2
08:15 64.9 °F /  18.3 °C 59.4 °F /  15.2 °C 30in /  1016.3hPa East 2mph /  3.2km/h 2mph /  3.2km/h 82% 0in /  0.0mm 79 W/m2
08:20 65.5 °F /  18.6 °C 59.5 °F /  15.3 °C 30in /  1016.3hPa Calm     81% 0in /  0.0mm 81 W/m2
08:25 65.7 °F /  18.7 °C 59.4 °F /  15.2 °C 30in /  1016.3hPa NW 2mph /  3.2km/h 3mph /  4.8km/h 80% 0in /  0.0mm 83 W/m2
08:30 65.7 °F /  18.7 °C 59.4 °F /  15.2 °C 30in /  1016.3hPa Calm   4mph /  6.4km/h 80% 0in /  0.0mm 83 W/m2
08:35 66.2 °F /  19 °C 59.9 °F /  15.5 °C 30in /  1016.3hPa ENE 2mph /  3.2km/h 2mph /  3.2km/h 80% 0in /  0.0mm 84 W/m2
08:40 66.6 °F /  19.2 °C 59.9 °F /  15.5 °C 30in /  1016.3hPa Calm     79% 0in /  0.0mm 86 W/m2
08:45 67.1 °F /  19.5 °C 60.1 °F /  15.6 °C 30in /  1016.3hPa Calm   4mph /  6.4km/h 78% 0in /  0.0mm 88 W/m2
08:50 67.5 °F /  19.7 °C 60.1 °F /  15.6 °C 30in /  1016.3hPa ENE 2.9mph /  4.7km/h 3mph /  4.8km/h 77% 0in /  0.0mm 90 W/m2
08:55 67.6 °F /  19.8 °C 59.7 °F /  15.4 °C 30in /  1016.3hPa ESE 2mph /  3.2km/h 3mph /  4.8km/h 76% 0in /  0.0mm 91 W/m2
09:00 67.6 °F /  19.8 °C 59.7 °F /  15.4 °C 30in /  1016.3hPa ENE 2mph /  3.2km/h 3mph /  4.8km/h 76% 0in /  0.0mm 109 W/m2
09:05 67.8 °F /  19.9 °C 59.5 °F /  15.3 °C 30in /  1016.3hPa North 2mph /  3.2km/h 3mph /  4.8km/h 75% 0in /  0.0mm 211 W/m2
09:10 68.2 °F /  20.1 °C 59.9 °F /  15.5 °C 30in /  1016.3hPa NE 0.9mph /  1.4km/h 2mph /  3.2km/h 75% 0in /  0.0mm 353 W/m2
09:15 68.4 °F /  20.2 °C 59.7 °F /  15.4 °C 30in /  1016.3hPa NNE 0.9mph /  1.4km/h 1mph /  1.6km/h 74% 0in /  0.0mm 380 W/m2
09:20 68.4 °F /  20.2 °C 59.4 °F /  15.2 °C 30in /  1016.3hPa North 2mph /  3.2km/h 3mph /  4.8km/h 73% 0in /  0.0mm 396 W/m2
09:25 68.7 °F /  20.4 °C 60.1 °F /  15.6 °C 30in /  1016.3hPa ENE 0.9mph /  1.4km/h 3mph /  4.8km/h 74% 0in /  0.0mm 413 W/m2
09:30 68.9 °F /  20.5 °C 60.3 °F /  15.7 °C 30in /  1015.9hPa East 0.9mph /  1.4km/h 2mph /  3.2km/h 74% 0in /  0.0mm 429 W/m2
09:35 69.3 °F /  20.7 °C 59.9 °F /  15.5 °C 30in /  1015.9hPa ESE 0.9mph /  1.4km/h 4mph /  6.4km/h 72% 0in /  0.0mm 443 W/m2
09:40 69.4 °F /  20.8 °C 59.2 °F /  15.1 °C 30in /  1015.9hPa ENE 2mph /  3.2km/h 5mph /  8km/h 70% 0in /  0.0mm 459 W/m2
09:45 69.4 °F /  20.8 °C 59.5 °F /  15.3 °C 30in /  1015.9hPa Calm   2mph /  3.2km/h 71% 0in /  0.0mm 468 W/m2
09:50 69.6 °F /  20.9 °C 59.7 °F /  15.4 °C 30in /  1015.9hPa NE 2mph /  3.2km/h 5mph /  8km/h 71% 0in /  0.0mm 485 W/m2
09:55 70.2 °F /  21.2 °C 59.9 °F /  15.5 °C 30in /  1015.9hPa SE 2mph /  3.2km/h 4mph /  6.4km/h 70% 0in /  0.0mm 499 W/m2
10:00 70.3 °F /  21.3 °C 60.1 °F /  15.6 °C 30in /  1015.9hPa East 2mph /  3.2km/h 4mph /  6.4km/h 70% 0in /  0.0mm 457 W/m2
10:05 70.5 °F /  21.4 °C 60.3 °F /  15.7 °C 30in /  1015.9hPa ENE 0.9mph /  1.4km/h 4mph /  6.4km/h 70% 0in /  0.0mm 111 W/m2
10:10 70.9 °F /  21.6 °C 60.6 °F /  15.9 °C 30in /  1015.6hPa NNW 2mph /  3.2km/h 3mph /  4.8km/h 70% 0in /  0.0mm 510 W/m2
10:15 71.2 °F /  21.8 °C 60.1 °F /  15.6 °C 30in /  1015.6hPa NNW 4mph /  6.4km/h 4mph /  6.4km/h 68% 0in /  0.0mm 552 W/m2
10:20 71.4 °F /  21.9 °C 60.8 °F /  16 °C 30in /  1015.6hPa NNW 2.9mph /  4.7km/h 3mph /  4.8km/h 69% 0in /  0.0mm 563 W/m2
10:25 71.8 °F /  22.1 °C 60.3 °F /  15.7 °C 30in /  1015.6hPa NE 0.9mph /  1.4km/h 4mph /  6.4km/h 67% 0in /  0.0mm 578 W/m2
10:30 72.1 °F /  22.3 °C 60.6 °F /  15.9 °C 30in /  1015.6hPa East 2mph /  3.2km/h 2mph /  3.2km/h 67% 0in /  0.0mm 589 W/m2
10:35 72.5 °F /  22.5 °C 60.4 °F /  15.8 °C 30in /  1015.6hPa East 4.9mph /  7.9km/h 7mph /  11.3km/h 66% 0in /  0.0mm 603 W/m2
10:40 72.9 °F /  22.7 °C 60.8 °F /  16 °C 30in /  1015.6hPa Calm   4mph /  6.4km/h 66% 0in /  0.0mm 613 W/m2
10:45 73 °F /  22.8 °C 60.6 °F /  15.9 °C 30in /  1015.6hPa SW 2.9mph /  4.7km/h 3mph /  4.8km/h 65% 0in /  0.0mm 621 W/m2
10:50 73.2 °F /  22.9 °C 60.3 °F /  15.7 °C 30in /  1015.6hPa NNE 0.9mph /  1.4km/h 4mph /  6.4km/h 64% 0in /  0.0mm 636 W/m2
10:55 73.8 °F /  23.2 °C 61.3 °F /  16.3 °C 30in /  1015.2hPa NE 2mph /  3.2km/h 3mph /  4.8km/h 65% 0in /  0.0mm 647 W/m2
11:00 74.3 °F /  23.5 °C 60.8 °F /  16 °C 30in /  1015.2hPa ENE 2mph /  3.2km/h 6mph /  9.7km/h 63% 0in /  0.0mm 654 W/m2
11:05 74.7 °F /  23.7 °C 61.2 °F /  16.2 °C 30in /  1015.2hPa Calm   4mph /  6.4km/h 63% 0in /  0.0mm 666 W/m2
11:10 75 °F /  23.9 °C 61.2 °F /  16.2 °C 30in /  1015.2hPa ENE 2.9mph /  4.7km/h 5mph /  8km/h 62% 0in /  0.0mm 671 W/m2
11:15 75.4 °F /  24.1 °C 61.9 °F /  16.6 °C 30in /  1015.2hPa Calm   2mph /  3.2km/h 63% 0in /  0.0mm 682 W/m2
11:20 75.9 °F /  24.4 °C 61.5 °F /  16.4 °C 30in /  1015.2hPa ESE 2mph /  3.2km/h 5mph /  8km/h 61% 0in /  0.0mm 694 W/m2
11:25 76.5 °F /  24.7 °C 61.5 °F /  16.4 °C 30in /  1015.2hPa Calm   6mph /  9.7km/h 60% 0in /  0.0mm 708 W/m2
11:30 76.6 °F /  24.8 °C 61.2 °F /  16.2 °C 30in /  1014.9hPa ENE 2.9mph /  4.7km/h 7mph /  11.3km/h 59% 0in /  0.0mm 717 W/m2
11:35 77.2 °F /  25.1 °C 61.3 °F /  16.3 °C 30in /  1014.9hPa East 2mph /  3.2km/h 5mph /  8km/h 58% 0in /  0.0mm 722 W/m2
11:40 77.4 °F /  25.2 °C 61 °F /  16.1 °C 30in /  1014.9hPa NNE 2mph /  3.2km/h 6mph /  9.7km/h 57% 0in /  0.0mm 733 W/m2
11:45 77 °F /  25 °C 61.5 °F /  16.4 °C 30in /  1014.9hPa ENE 4mph /  6.4km/h 6mph /  9.7km/h 59% 0in /  0.0mm 742 W/m2
11:50 77.2 °F /  25.1 °C 60.3 °F /  15.7 °C 30in /  1014.6hPa Calm   3mph /  4.8km/h 56% 0in /  0.0mm 752 W/m2
12:00 78.1 °F /  25.6 °C 60.6 °F /  15.9 °C 30in /  1014.6hPa East 2mph /  3.2km/h 2mph /  3.2km/h 55% 0in /  0.0mm 768 W/m2
12:05 78.3 °F /  25.7 °C 59.7 °F /  15.4 °C 30in /  1014.6hPa ENE 2mph /  3.2km/h 2mph /  3.2km/h 53% 0in /  0.0mm 779 W/m2
12:10 78.6 °F /  25.9 °C 60.1 °F /  15.6 °C 30in /  1014.6hPa ENE 6mph /  9.7km/h 7mph /  11.3km/h 53% 0in /  0.0mm 784 W/m2
12:15 79 °F /  26.1 °C 61.5 °F /  16.4 °C 30in /  1014.2hPa ESE 2.9mph /  4.7km/h 4mph /  6.4km/h 55% 0in /  0.0mm 795 W/m2
12:20 79 °F /  26.1 °C 59.9 °F /  15.5 °C 30in /  1014.2hPa East 2mph /  3.2km/h 5mph /  8km/h 52% 0in /  0.0mm 812 W/m2
12:25 79.2 °F /  26.2 °C 60.1 °F /  15.6 °C 30in /  1014.2hPa ENE 0.9mph /  1.4km/h 5mph /  8km/h 52% 0in /  0.0mm 805 W/m2
12:30 79.3 °F /  26.3 °C 60.8 °F /  16 °C 30in /  1014.2hPa SW 0.9mph /  1.4km/h 4mph /  6.4km/h 53% 0in /  0.0mm 812 W/m2
12:35 79.5 °F /  26.4 °C 59.7 °F /  15.4 °C 30in /  1014.2hPa ENE 0.9mph /  1.4km/h 6mph /  9.7km/h 51% 0in /  0.0mm 828 W/m2
12:40 79.5 °F /  26.4 °C 61.3 °F /  16.3 °C 30in /  1014.2hPa SE 2.9mph /  4.7km/h 5mph /  8km/h 54% 0in /  0.0mm 847 W/m2
12:45 79.9 °F /  26.6 °C 59.5 °F /  15.3 °C 30in /  1014.2hPa Calm   4mph /  6.4km/h 50% 0in /  0.0mm 838 W/m2
12:50 80.1 °F /  26.7 °C 60.3 °F /  15.7 °C 29.9in /  1013.9hPa East 2mph /  3.2km/h 2mph /  3.2km/h 51% 0in /  0.0mm 838 W/m2
12:55 80.1 °F /  26.7 °C 60.3 °F /  15.7 °C 29.9in /  1013.9hPa East 4mph /  6.4km/h 6mph /  9.7km/h 51% 0in /  0.0mm 844 W/m2
13:00 80.1 °F /  26.7 °C 59.7 °F /  15.4 °C 29.9in /  1013.9hPa East 0.9mph /  1.4km/h 9mph /  14.5km/h 50% 0in /  0.0mm 853 W/m2
13:05 80.1 °F /  26.7 °C 59.7 °F /  15.4 °C 29.9in /  1013.9hPa SE 4mph /  6.4km/h 5mph /  8km/h 50% 0in /  0.0mm 844 W/m2
13:10 80.1 °F /  26.7 °C 58.6 °F /  14.8 °C 29.9in /  1013.9hPa NNE 4.9mph /  7.9km/h 6mph /  9.7km/h 48% 0in /  0.0mm 851 W/m2
13:15 80.1 °F /  26.7 °C 59.2 °F /  15.1 °C 29.9in /  1013.9hPa ENE 0.9mph /  1.4km/h 3mph /  4.8km/h 49% 0in /  0.0mm 863 W/m2
13:20 80.2 °F /  26.8 °C 59.9 °F /  15.5 °C 29.9in /  1013.9hPa ESE 0.9mph /  1.4km/h 4mph /  6.4km/h 50% 0in /  0.0mm 872 W/m2
13:25 80.4 °F /  26.9 °C 57.7 °F /  14.3 °C 29.9in /  1013.5hPa NNW 0.9mph /  1.4km/h 9mph /  14.5km/h 46% 0in /  0.0mm 881 W/m2
13:30 80.2 °F /  26.8 °C 58.8 °F /  14.9 °C 29.9in /  1013.5hPa Calm   4mph /  6.4km/h 48% 0in /  0.0mm 874 W/m2
13:35 80.2 °F /  26.8 °C 58.1 °F /  14.5 °C 29.9in /  1013.5hPa East 0.9mph /  1.4km/h 9mph /  14.5km/h 47% 0in /  0.0mm 888 W/m2
13:40 80.6 °F /  27 °C 57.9 °F /  14.4 °C 29.9in /  1013.5hPa Calm   4mph /  6.4km/h 46% 0in /  0.0mm 865 W/m2
13:45 80.8 °F /  27.1 °C 58.6 °F /  14.8 °C 29.9in /  1013.5hPa East 7mph /  11.3km/h 7mph /  11.3km/h 47% 0in /  0.0mm 861 W/m2
13:50 80.8 °F /  27.1 °C 57.4 °F /  14.1 °C 29.9in /  1013.5hPa East 2.9mph /  4.7km/h 6mph /  9.7km/h 45% 0in /  0.0mm 872 W/m2
13:55 80.8 °F /  27.1 °C 58.1 °F /  14.5 °C 29.9in /  1013.2hPa NE 0.9mph /  1.4km/h 3mph /  4.8km/h 46% 0in /  0.0mm 865 W/m2
14:00 81 °F /  27.2 °C 58.8 °F /  14.9 °C 29.9in /  1013.2hPa NE 2.9mph /  4.7km/h 3mph /  4.8km/h 47% 0in /  0.0mm 868 W/m2
14:05 81.1 °F /  27.3 °C 57.7 °F /  14.3 °C 29.9in /  1013.2hPa ENE 2.9mph /  4.7km/h 5mph /  8km/h 45% 0in /  0.0mm 858 W/m2
14:10 81.5 °F /  27.5 °C 59.9 °F /  15.5 °C 29.9in /  1013.2hPa East 2.9mph /  4.7km/h 5mph /  8km/h 48% 0in /  0.0mm 867 W/m2
14:16 81.7 °F /  27.6 °C 57 °F /  13.9 °C 29.9in /  1013.2hPa SE 2.9mph /  4.7km/h 7mph /  11.3km/h 43% 0in /  0.0mm 872 W/m2
14:21 81.3 °F /  27.4 °C 58.6 °F /  14.8 °C 29.9in /  1012.9hPa SE 4.9mph /  7.9km/h 5mph /  8km/h 46% 0in /  0.0mm 877 W/m2
14:26 81.3 °F /  27.4 °C 57.9 °F /  14.4 °C 29.9in /  1012.9hPa East 2mph /  3.2km/h 8mph /  12.9km/h 45% 0in /  0.0mm 865 W/m2
14:31 81.3 °F /  27.4 °C 57.4 °F /  14.1 °C 29.9in /  1012.9hPa SE 2mph /  3.2km/h 5mph /  8km/h 44% 0in /  0.0mm 849 W/m2
14:36 81.1 °F /  27.3 °C 57.2 °F /  14 °C 29.9in /  1012.9hPa NNW 0.9mph /  1.4km/h 4mph /  6.4km/h 44% 0in /  0.0mm 833 W/m2
14:41 81.1 °F /  27.3 °C 59.5 °F /  15.3 °C 29.9in /  1012.9hPa NE 0.9mph /  1.4km/h 4mph /  6.4km/h 48% 0in /  0.0mm 856 W/m2
14:46 81.7 °F /  27.6 °C 59.5 °F /  15.3 °C 29.9in /  1012.9hPa East 0.9mph /  1.4km/h 9mph /  14.5km/h 47% 0in /  0.0mm 867 W/m2
14:51 81.9 °F /  27.7 °C 59.7 °F /  15.4 °C 29.9in /  1012.9hPa SE 2mph /  3.2km/h 3mph /  4.8km/h 47% 0in /  0.0mm 853 W/m2
14:56 81.9 °F /  27.7 °C 58.5 °F /  14.7 °C 29.9in /  1012.9hPa East 2.9mph /  4.7km/h 9mph /  14.5km/h 45% 0in /  0.0mm 858 W/m2
15:01 82 °F /  27.8 °C 56.7 °F /  13.7 °C 29.9in /  1012.9hPa NNE 2mph /  3.2km/h 7mph /  11.3km/h 42% 0in /  0.0mm 874 W/m2
15:06 82 °F /  27.8 °C 57.9 °F /  14.4 °C 29.9in /  1012.9hPa WNW 2.9mph /  4.7km/h 4mph /  6.4km/h 44% 0in /  0.0mm 854 W/m2
15:11 82 °F /  27.8 °C 60.4 °F /  15.8 °C 29.9in /  1012.9hPa ESE 2mph /  3.2km/h 5mph /  8km/h 48% 0in /  0.0mm 800 W/m2
15:16 82.2 °F /  27.9 °C 60.6 °F /  15.9 °C 29.9in /  1012.9hPa NNW 2mph /  3.2km/h 6mph /  9.7km/h 48% 0in /  0.0mm 826 W/m2
15:21 82.2 °F /  27.9 °C 58.8 °F /  14.9 °C 29.9in /  1012.5hPa NNW 2mph /  3.2km/h 8mph /  12.9km/h 45% 0in /  0.0mm 668 W/m2
15:26 82 °F /  27.8 °C 59.2 °F /  15.1 °C 29.9in /  1012.5hPa SE 0.9mph /  1.4km/h 3mph /  4.8km/h 46% 0in /  0.0mm 721 W/m2
15:31 82 °F /  27.8 °C 60.4 °F /  15.8 °C 29.9in /  1012.5hPa SE 2.9mph /  4.7km/h 4mph /  6.4km/h 48% 0in /  0.0mm 561 W/m2
15:36 82.2 °F /  27.9 °C 59.9 °F /  15.5 °C 29.9in /  1012.5hPa SE 0.9mph /  1.4km/h 3mph /  4.8km/h 47% 0in /  0.0mm 563 W/m2
15:41 82.4 °F /  28 °C 61.3 °F /  16.3 °C 29.9in /  1012.5hPa ENE 2mph /  3.2km/h 2mph /  3.2km/h 49% 0in /  0.0mm 534 W/m2
15:46 82.6 °F /  28.1 °C 59 °F /  15 °C 29.9in /  1012.2hPa East 2mph /  3.2km/h 3mph /  4.8km/h 45% 0in /  0.0mm 668 W/m2
15:51 82.8 °F /  28.2 °C 59.9 °F /  15.5 °C 29.9in /  1012.2hPa Calm   2mph /  3.2km/h 46% 0in /  0.0mm 812 W/m2
15:56 83.1 °F /  28.4 °C 60.3 °F /  15.7 °C 29.9in /  1012.2hPa East 4mph /  6.4km/h 4mph /  6.4km/h 46% 0in /  0.0mm 671 W/m2
16:01 83.3 °F /  28.5 °C 59.2 °F /  15.1 °C 29.9in /  1012.2hPa East 2mph /  3.2km/h 6mph /  9.7km/h 44% 0in /  0.0mm 647 W/m2
16:06 83.5 °F /  28.6 °C 59.9 °F /  15.5 °C 29.9in /  1012.2hPa North 0.9mph /  1.4km/h 2mph /  3.2km/h 45% 0in /  0.0mm 693 W/m2
16:11 83.5 °F /  28.6 °C 61.2 °F /  16.2 °C 29.9in /  1012.2hPa Calm   2mph /  3.2km/h 47% 0in /  0.0mm 462 W/m2
16:16 83.3 °F /  28.5 °C 59.2 °F /  15.1 °C 29.9in /  1011.9hPa ENE 2mph /  3.2km/h 6mph /  9.7km/h 44% 0in /  0.0mm 396 W/m2
16:21 82.9 °F /  28.3 °C 58.1 °F /  14.5 °C 29.9in /  1011.9hPa SE 2mph /  3.2km/h 2mph /  3.2km/h 43% 0in /  0.0mm 684 W/m2
16:26 83.1 °F /  28.4 °C 60.3 °F /  15.7 °C 29.9in /  1011.9hPa NE 2mph /  3.2km/h 2mph /  3.2km/h 46% 0in /  0.0mm 705 W/m2
16:31 83.5 °F /  28.6 °C 58.6 °F /  14.8 °C 29.9in /  1011.9hPa Calm   7mph /  11.3km/h 43% 0in /  0.0mm 659 W/m2
16:36 83.7 °F /  28.7 °C 58.8 °F /  14.9 °C 29.9in /  1011.9hPa Calm   4mph /  6.4km/h 43% 0in /  0.0mm 594 W/m2
16:41 83.5 °F /  28.6 °C 58.6 °F /  14.8 °C 29.9in /  1011.9hPa ENE 4.9mph /  7.9km/h 10mph /  16.1km/h 43% 0in /  0.0mm 373 W/m2
16:46 82.9 °F /  28.3 °C 58.1 °F /  14.5 °C 29.9in /  1011.9hPa NNE 0.9mph /  1.4km/h 5mph /  8km/h 43% 0in /  0.0mm 424 W/m2
16:51 82.8 °F /  28.2 °C 58.6 °F /  14.8 °C 29.9in /  1011.9hPa Calm   10mph /  16.1km/h 44% 0in /  0.0mm 547 W/m2
16:56 82.9 °F /  28.3 °C 58.1 °F /  14.5 °C 29.9in /  1011.9hPa NNE 0.9mph /  1.4km/h 3mph /  4.8km/h 43% 0in /  0.0mm 390 W/m2
17:01 82.8 °F /  28.2 °C 59.9 °F /  15.5 °C 29.9in /  1011.9hPa SE 0.9mph /  1.4km/h 6mph /  9.7km/h 46% 0in /  0.0mm 397 W/m2
17:06 82.9 °F /  28.3 °C 58.1 °F /  14.5 °C 29.9in /  1011.5hPa East 4mph /  6.4km/h 7mph /  11.3km/h 43% 0in /  0.0mm 694 W/m2
17:11 83.1 °F /  28.4 °C 57.6 °F /  14.2 °C 29.9in /  1011.5hPa North 0.9mph /  1.4km/h 4mph /  6.4km/h 42% 0in /  0.0mm 705 W/m2
17:16 83.7 °F /  28.7 °C 57.4 °F /  14.1 °C 29.9in /  1011.5hPa East 4.9mph /  7.9km/h 7mph /  11.3km/h 41% 0in /  0.0mm 529 W/m2
17:21 83.7 °F /  28.7 °C 57.4 °F /  14.1 °C 29.9in /  1011.5hPa ENE 2.9mph /  4.7km/h 5mph /  8km/h 41% 0in /  0.0mm 519 W/m2
17:26 83.1 °F /  28.4 °C 59.5 °F /  15.3 °C 29.9in /  1011.5hPa East 0.9mph /  1.4km/h 7mph /  11.3km/h 45% 0in /  0.0mm 169 W/m2
17:31 82.9 °F /  28.3 °C 58.1 °F /  14.5 °C 29.9in /  1011.2hPa ESE 2.9mph /  4.7km/h 4mph /  6.4km/h 43% 0in /  0.0mm 629 W/m2
17:36 83.1 °F /  28.4 °C 58.3 °F /  14.6 °C 29.9in /  1011.2hPa SE 2.9mph /  4.7km/h 3mph /  4.8km/h 43% 0in /  0.0mm 601 W/m2
17:41 83.1 °F /  28.4 °C 57 °F /  13.9 °C 29.9in /  1011.2hPa ENE 4.9mph /  7.9km/h 9mph /  14.5km/h 41% 0in /  0.0mm 601 W/m2
17:46 83.1 °F /  28.4 °C 57 °F /  13.9 °C 29.9in /  1011.2hPa East 2.9mph /  4.7km/h 6mph /  9.7km/h 41% 0in /  0.0mm 543 W/m2
17:51 83.3 °F /  28.5 °C 56.5 °F /  13.6 °C 29.9in /  1011.2hPa SSE 4mph /  6.4km/h 5mph /  8km/h 40% 0in /  0.0mm 557 W/m2
17:56 83.3 °F /  28.5 °C 56.5 °F /  13.6 °C 29.9in /  1011.2hPa East 2mph /  3.2km/h 3mph /  4.8km/h 40% 0in /  0.0mm 494 W/m2
18:01 83.1 °F /  28.4 °C 58.3 °F /  14.6 °C 29.9in /  1011.2hPa Calm   6mph /  9.7km/h 43% 0in /  0.0mm 197 W/m2
18:06 82.9 °F /  28.3 °C 57.6 °F /  14.2 °C 29.9in /  1011.2hPa East 2.9mph /  4.7km/h 4mph /  6.4km/h 42% 0in /  0.0mm 512 W/m2
18:11 83.1 °F /  28.4 °C 58.3 °F /  14.6 °C 29.9in /  1011.2hPa East 2mph /  3.2km/h 6mph /  9.7km/h 43% 0in /  0.0mm 519 W/m2
18:16 83.7 °F /  28.7 °C 57.4 °F /  14.1 °C 29.9in /  1011.2hPa ESE 2mph /  3.2km/h 4mph /  6.4km/h 41% 0in /  0.0mm 499 W/m2
18:21 83.7 °F /  28.7 °C 58.1 °F /  14.5 °C 29.9in /  1010.8hPa Calm   7mph /  11.3km/h 42% 0in /  0.0mm 299 W/m2
18:26 83.5 °F /  28.6 °C 59.4 °F /  15.2 °C 29.9in /  1010.8hPa Calm   3mph /  4.8km/h 44% 0in /  0.0mm 403 W/m2
18:31 83.5 °F /  28.6 °C 57.9 °F /  14.4 °C 29.9in /  1010.8hPa Calm   5mph /  8km/h 42% 0in /  0.0mm 436 W/m2
18:36 83.5 °F /  28.6 °C 57.9 °F /  14.4 °C 29.8in /  1010.5hPa East 2mph /  3.2km/h 4mph /  6.4km/h 42% 0in /  0.0mm 417 W/m2
18:41 83.3 °F /  28.5 °C 57.2 °F /  14 °C 29.8in /  1010.5hPa NE 4mph /  6.4km/h 9mph /  14.5km/h 41% 0in /  0.0mm 390 W/m2
18:46 83.5 °F /  28.6 °C 59.9 °F /  15.5 °C 29.8in /  1010.5hPa East 2mph /  3.2km/h 3mph /  4.8km/h 45% 0in /  0.0mm 353 W/m2
18:51 83.5 °F /  28.6 °C 58.6 °F /  14.8 °C 29.8in /  1010.5hPa SSE 2.9mph /  4.7km/h 6mph /  9.7km/h 43% 0in /  0.0mm 330 W/m2
18:56 83.5 °F /  28.6 °C 57.9 °F /  14.4 °C 29.8in /  1010.5hPa ENE 2.9mph /  4.7km/h 10mph /  16.1km/h 42% 0in /  0.0mm 288 W/m2
19:01 82.9 °F /  28.3 °C 57.6 °F /  14.2 °C 29.8in /  1010.2hPa Calm   4mph /  6.4km/h 42% 0in /  0.0mm 176 W/m2
19:06 82.2 °F /  27.9 °C 57.6 °F /  14.2 °C 29.8in /  1010.2hPa ENE 2mph /  3.2km/h 10mph /  16.1km/h 43% 0in /  0.0mm 95 W/m2
19:11 81.9 °F /  27.7 °C 57.7 °F /  14.3 °C 29.8in /  1010.2hPa Calm   1mph /  1.6km/h 44% 0in /  0.0mm 76 W/m2
19:16 81.3 °F /  27.4 °C 58.6 °F /  14.8 °C 29.8in /  1010.2hPa ENE 0.9mph /  1.4km/h 2mph /  3.2km/h 46% 0in /  0.0mm 77 W/m2
19:21 80.6 °F /  27 °C 57.9 °F /  14.4 °C 29.8in /  1010.2hPa SSE 2mph /  3.2km/h 2mph /  3.2km/h 46% 0in /  0.0mm 86 W/m2
19:26 80.2 °F /  26.8 °C 58.1 °F /  14.5 °C 29.8in /  1010.2hPa East 2mph /  3.2km/h 6mph /  9.7km/h 47% 0in /  0.0mm 95 W/m2
19:31 80.1 °F /  26.7 °C 59.2 °F /  15.1 °C 29.8in /  1010.2hPa Calm   1mph /  1.6km/h 49% 0in /  0.0mm 239 W/m2
19:36 80.1 °F /  26.7 °C 58.6 °F /  14.8 °C 29.8in /  1010.2hPa ENE 2mph /  3.2km/h 9mph /  14.5km/h 48% 0in /  0.0mm 139 W/m2
19:41 80.2 °F /  26.8 °C 58.1 °F /  14.5 °C 29.8in /  1010.2hPa ENE 2mph /  3.2km/h 2mph /  3.2km/h 47% 0in /  0.0mm 230 W/m2
19:46 80.4 °F /  26.9 °C 59 °F /  15 °C 29.8in /  1010.2hPa NE 2.9mph /  4.7km/h 9mph /  14.5km/h 48% 0in /  0.0mm 255 W/m2
19:51 80.8 °F /  27.1 °C 58.6 °F /  14.8 °C 29.8in /  1010.2hPa ENE 0.9mph /  1.4km/h 6mph /  9.7km/h 47% 0in /  0.0mm 225 W/m2
19:56 81 °F /  27.2 °C 59.4 °F /  15.2 °C 29.8in /  1009.8hPa ENE 4.9mph /  7.9km/h 6mph /  9.7km/h 48% 0in /  0.0mm 116 W/m2
20:01 80.4 °F /  26.9 °C 58.3 °F /  14.6 °C 29.8in /  1009.8hPa ENE 4mph /  6.4km/h 4mph /  6.4km/h 47% 0in /  0.0mm 86 W/m2
20:06 80.1 °F /  26.7 °C 58.1 °F /  14.5 °C 29.8in /  1009.8hPa East 2mph /  3.2km/h 3mph /  4.8km/h 47% 0in /  0.0mm 88 W/m2
20:11 79.5 °F /  26.4 °C 58.6 °F /  14.8 °C 29.8in /  1009.8hPa East 2.9mph /  4.7km/h 3mph /  4.8km/h 49% 0in /  0.0mm 97 W/m2
20:16 79.2 °F /  26.2 °C 58.3 °F /  14.6 °C 29.8in /  1009.8hPa East 0.9mph /  1.4km/h 5mph /  8km/h 49% 0in /  0.0mm 83 W/m2
20:21 79 °F /  26.1 °C 57.6 °F /  14.2 °C 29.8in /  1009.8hPa NE 0.9mph /  1.4km/h 4mph /  6.4km/h 48% 0in /  0.0mm 84 W/m2
20:26 78.8 °F /  26 °C 57.4 °F /  14.1 °C 29.8in /  1009.8hPa East 2mph /  3.2km/h 9mph /  14.5km/h 48% 0in /  0.0mm 84 W/m2
20:31 78.8 °F /  26 °C 57.4 °F /  14.1 °C 29.8in /  1009.8hPa East 2.9mph /  4.7km/h 4mph /  6.4km/h 48% 0in /  0.0mm 58 W/m2
20:36 78.6 °F /  25.9 °C 57.2 °F /  14 °C 29.8in /  1009.8hPa ENE 4mph /  6.4km/h 9mph /  14.5km/h 48% 0in /  0.0mm 46 W/m2
20:41 78.4 °F /  25.8 °C 57.7 °F /  14.3 °C 29.8in /  1009.8hPa ENE 2mph /  3.2km/h 3mph /  4.8km/h 49% 0in /  0.0mm 40 W/m2
20:46 78.1 °F /  25.6 °C 57.4 °F /  14.1 °C 29.8in /  1009.8hPa ESE 2mph /  3.2km/h 7mph /  11.3km/h 49% 0in /  0.0mm 33 W/m2
20:51 77.7 °F /  25.4 °C 58.1 °F /  14.5 °C 29.8in /  1009.8hPa ENE 0.9mph /  1.4km/h 3mph /  4.8km/h 51% 0in /  0.0mm 32 W/m2
20:56 77.4 °F /  25.2 °C 57.7 °F /  14.3 °C 29.8in /  1009.8hPa ESE 4mph /  6.4km/h 7mph /  11.3km/h 51% 0in /  0.0mm 25 W/m2
21:01 77.2 °F /  25.1 °C 58.3 °F /  14.6 °C 29.8in /  1009.8hPa East 2.9mph /  4.7km/h 4mph /  6.4km/h 52% 0in /  0.0mm 21 W/m2
21:06 76.8 °F /  24.9 °C 58.5 °F /  14.7 °C 29.8in /  1009.8hPa East 0.9mph /  1.4km/h 2mph /  3.2km/h 53% 0in /  0.0mm 16 W/m2
21:11 76.6 °F /  24.8 °C 59.2 °F /  15.1 °C 29.8in /  1009.8hPa Calm   2mph /  3.2km/h 55% 0in /  0.0mm 11 W/m2
21:16 76.3 °F /  24.6 °C 59 °F /  15 °C 29.8in /  1009.8hPa ESE 4mph /  6.4km/h 6mph /  9.7km/h 55% 0in /  0.0mm 7 W/m2
21:21 75.9 °F /  24.4 °C 58.6 °F /  14.8 °C 29.8in /  1009.8hPa East 4mph /  6.4km/h 9mph /  14.5km/h 55% 0in /  0.0mm 5 W/m2
21:26 75.7 °F /  24.3 °C 59 °F /  15 °C 29.8in /  1009.8hPa SE 0.9mph /  1.4km/h 2mph /  3.2km/h 56% 0in /  0.0mm 0 W/m2
21:31 75.4 °F /  24.1 °C 58.6 °F /  14.8 °C 29.8in /  1009.8hPa Calm   9mph /  14.5km/h 56% 0in /  0.0mm 0 W/m2
21:36 75 °F /  23.9 °C 59.2 °F /  15.1 °C 29.8in /  1009.8hPa East 2mph /  3.2km/h 4mph /  6.4km/h 58% 0in /  0.0mm 0 W/m2
21:41 74.7 °F /  23.7 °C 59.4 °F /  15.2 °C 29.8in /  1009.8hPa Calm   6mph /  9.7km/h 59% 0in /  0.0mm 0 W/m2
21:46 73.9 °F /  23.3 °C 58.6 °F /  14.8 °C 29.8in /  1009.8hPa ENE 0.9mph /  1.4km/h 2mph /  3.2km/h 59% 0in /  0.0mm 0 W/m2
21:51 73.6 °F /  23.1 °C 58.8 °F /  14.9 °C 29.8in /  1010.2hPa ESE 0.9mph /  1.4km/h 4mph /  6.4km/h 60% 0in /  0.0mm 0 W/m2
21:56 73.2 °F /  22.9 °C 59 °F /  15 °C 29.8in /  1010.2hPa Calm   1mph /  1.6km/h 61% 0in /  0.0mm 0 W/m2
22:01 72.9 °F /  22.7 °C 59 °F /  15 °C 29.8in /  1010.2hPa Calm     62% 0in /  0.0mm 0 W/m2
22:06 72.5 °F /  22.5 °C 58.8 °F /  14.9 °C 29.8in /  1009.8hPa ENE 0.9mph /  1.4km/h 3mph /  4.8km/h 62% 0in /  0.0mm 0 W/m2
22:11 72.3 °F /  22.4 °C 59 °F /  15 °C 29.8in /  1009.8hPa Calm     63% 0in /  0.0mm 0 W/m2
22:16 72 °F /  22.2 °C 58.6 °F /  14.8 °C 29.8in /  1009.5hPa Calm   1mph /  1.6km/h 63% 0in /  0.0mm 0 W/m2
22:21 71.8 °F /  22.1 °C 58.5 °F /  14.7 °C 29.8in /  1009.8hPa ENE 0.9mph /  1.4km/h 2mph /  3.2km/h 63% 0in /  0.0mm 0 W/m2
22:26 71.4 °F /  21.9 °C 58.6 °F /  14.8 °C 29.8in /  1010.2hPa Calm   1mph /  1.6km/h 64% 0in /  0.0mm 0 W/m2
22:31 71.2 °F /  21.8 °C 59.4 °F /  15.2 °C 29.8in /  1010.2hPa Calm   2mph /  3.2km/h 66% 0in /  0.0mm 0 W/m2
22:36 70.9 °F /  21.6 °C 59 °F /  15 °C 29.8in /  1010.2hPa Calm     66% 0in /  0.0mm 0 W/m2
22:41 70.5 °F /  21.4 °C 59 °F /  15 °C 29.8in /  1010.2hPa Calm     67% 0in /  0.0mm 0 W/m2
22:46 70.3 °F /  21.3 °C 58.8 °F /  14.9 °C 29.8in /  1010.2hPa ENE 0.9mph /  1.4km/h 1mph /  1.6km/h 67% 0in /  0.0mm 0 W/m2
22:51 70 °F /  21.1 °C 59 °F /  15 °C 29.8in /  1009.8hPa Calm     68% 0in /  0.0mm 0 W/m2
22:56 69.8 °F /  21 °C 58.8 °F /  14.9 °C 29.8in /  1009.8hPa SE 2mph /  3.2km/h 2mph /  3.2km/h 68% 0in /  0.0mm 0 W/m2
23:01 69.6 °F /  20.9 °C 59 °F /  15 °C 29.8in /  1009.8hPa Calm   1mph /  1.6km/h 69% 0in /  0.0mm 0 W/m2
23:07 69.4 °F /  20.8 °C 58.8 °F /  14.9 °C 29.8in /  1009.8hPa SE 0.9mph /  1.4km/h 2mph /  3.2km/h 69% 0in /  0.0mm 0 W/m2
23:12 69.3 °F /  20.7 °C 59 °F /  15 °C 29.8in /  1009.8hPa Calm   1mph /  1.6km/h 70% 0in /  0.0mm 0 W/m2
23:17 69.1 °F /  20.6 °C 58.8 °F /  14.9 °C 29.8in /  1009.5hPa SE 0.9mph /  1.4km/h 1mph /  1.6km/h 70% 0in /  0.0mm 0 W/m2
23:22 68.7 °F /  20.4 °C 59 °F /  15 °C 29.8in /  1009.8hPa SE 0.9mph /  1.4km/h 1mph /  1.6km/h 71% 0in /  0.0mm 0 W/m2
23:27 68.5 °F /  20.3 °C 58.8 °F /  14.9 °C 29.8in /  1009.5hPa Calm     71% 0in /  0.0mm 0 W/m2
23:32 68.2 °F /  20.1 °C 58.8 °F /  14.9 °C 29.8in /  1009.5hPa Calm     72% 0in /  0.0mm 0 W/m2
23:37 68 °F /  20 °C 58.6 °F /  14.8 °C 29.8in /  1009.5hPa Calm     72% 0in /  0.0mm 0 W/m2
23:42 67.8 °F /  19.9 °C 58.8 °F /  14.9 °C 29.8in /  1009.5hPa Calm   1mph /  1.6km/h 73% 0in /  0.0mm 0 W/m2
23:47 67.6 °F /  19.8 °C 58.6 °F /  14.8 °C 29.8in /  1009.5hPa Calm   2mph /  3.2km/h 73% 0in /  0.0mm 0 W/m2
23:52 67.5 °F /  19.7 °C 58.5 °F /  14.7 °C 29.8in /  1009.5hPa Calm   1mph /  1.6km/h 73% 0in /  0.0mm 0 W/m2
23:57 67.5 °F /  19.7 °C 58.8 °F /  14.9 °C 29.8in /  1009.5hPa Calm   1mph /  1.6km/h 74% 0in /  0.0mm 0 W/m2
Juneau County Weather
Compliments of Weather Underground - 4 mb